Time;durP1;ratioP1;P1;durP2;ratioP2;P2;SDS_P1;SDS_P2;PMS_P1;PMS_P2;Temp;Humidity;BMP_temperature;BMP_pressure;BME280_temperature;BME280_humidity;BME280_pressure;Samples;Min_cycle;Max_cycle;Signal;HPM_P1;HPM_P2
2022/06/13 00:00:00;;;;;;;0.7;0.7;;;;;;;16.8;100.0;101790;;;;
2022/06/13 00:01:00;;;;;;;0.7;0.7;;;;;;;16.8;100.0;101790;;;;
2022/06/13 00:02:00;;;;;;;0.7;0.7;;;;;;;16.7;100.0;101790;;;;
2022/06/13 00:03:06;;;;;;;0.7;0.7;;;;;;;16.7;100.0;101790;;;;
2022/06/13 00:04:01;;;;;;;0.7;0.7;;;;;;;16.6;100.0;101790;;;;
2022/06/13 00:05:00;;;;;;;0.7;0.7;;;;;;;16.6;100.0;101790;;;;
2022/06/13 00:06:00;;;;;;;0.7;0.7;;;;;;;16.6;100.0;101790;;;;
2022/06/13 00:07:01;;;;;;;0.7;0.7;;;;;;;16.6;100.0;101790;;;;
2022/06/13 00:08:00;;;;;;;0.7;0.7;;;;;;;16.6;100.0;101780;;;;
2022/06/13 00:09:00;;;;;;;0.7;0.7;;;;;;;16.6;100.0;101780;;;;
2022/06/13 00:10:00;;;;;;;0.7;0.7;;;;;;;16.6;100.0;101780;;;;
2022/06/13 00:11:00;;;;;;;0.7;0.7;;;;;;;16.6;100.0;101780;;;;
2022/06/13 00:12:00;;;;;;;0.7;0.7;;;;;;;16.4;100.0;101780;;;;
2022/06/13 00:13:00;;;;;;;0.7;0.7;;;;;;;16.4;100.0;101780;;;;
2022/06/13 00:14:00;;;;;;;0.7;0.7;;;;;;;16.0;100.0;101780;;;;
2022/06/13 00:15:00;;;;;;;0.7;0.7;;;;;;;16.0;100.0;101780;;;;
2022/06/13 00:16:00;;;;;;;0.7;0.7;;;;;;;16.2;100.0;101780;;;;
2022/06/13 00:17:01;;;;;;;0.7;0.7;;;;;;;16.2;100.0;101780;;;;
2022/06/13 00:18:00;;;;;;;0.7;0.7;;;;;;;16.3;100.0;101770;;;;
2022/06/13 00:19:00;;;;;;;13.6;0.9;;;;;;;16.3;100.0;101770;;;;
2022/06/13 00:20:00;;;;;;;13.6;0.9;;;;;;;16.4;100.0;101780;;;;
2022/06/13 00:21:00;;;;;;;13.6;0.9;;;;;;;16.4;100.0;101780;;;;
2022/06/13 00:22:00;;;;;;;13.6;0.9;;;;;;;16.3;100.0;101770;;;;
2022/06/13 00:23:00;;;;;;;13.6;0.9;;;;;;;16.3;100.0;101770;;;;
2022/06/13 00:24:01;;;;;;;13.6;0.9;;;;;;;16.3;100.0;101770;;;;
2022/06/13 00:25:00;;;;;;;13.6;0.9;;;;;;;16.3;100.0;101770;;;;
2022/06/13 00:26:00;;;;;;;13.6;0.9;;;;;;;16.2;100.0;101770;;;;
2022/06/13 00:27:00;;;;;;;13.6;0.9;;;;;;;16.2;100.0;101770;;;;
2022/06/13 00:28:00;;;;;;;13.6;0.9;;;;;;;16.2;100.0;101770;;;;
2022/06/13 00:29:00;;;;;;;13.6;0.9;;;;;;;16.2;100.0;101770;;;;
2022/06/13 00:30:00;;;;;;;13.6;0.9;;;;;;;16.2;100.0;101770;;;;
2022/06/13 00:31:00;;;;;;;13.6;0.9;;;;;;;16.2;100.0;101770;;;;
2022/06/13 00:32:00;;;;;;;13.6;0.9;;;;;;;16.2;100.0;101770;;;;
2022/06/13 00:33:00;;;;;;;13.6;0.9;;;;;;;16.2;100.0;101770;;;;
2022/06/13 00:34:00;;;;;;;13.6;0.9;;;;;;;16.1;100.0;101780;;;;
2022/06/13 00:35:00;;;;;;;13.6;0.9;;;;;;;16.1;100.0;101780;;;;
2022/06/13 00:36:00;;;;;;;13.6;0.9;;;;;;;16.2;100.0;101780;;;;
2022/06/13 00:37:00;;;;;;;13.6;0.9;;;;;;;16.2;100.0;101780;;;;
2022/06/13 00:38:00;;;;;;;13.6;0.9;;;;;;;16.1;100.0;101770;;;;
2022/06/13 00:39:00;;;;;;;0.7;0.7;;;;;;;16.1;100.0;101770;;;;
2022/06/13 00:40:00;;;;;;;0.7;0.7;;;;;;;16.1;100.0;101770;;;;
2022/06/13 00:41:00;;;;;;;0.7;0.7;;;;;;;16.1;100.0;101770;;;;
2022/06/13 00:42:00;;;;;;;0.7;0.7;;;;;;;15.9;100.0;101770;;;;
2022/06/13 00:43:01;;;;;;;0.7;0.7;;;;;;;15.9;100.0;101770;;;;
2022/06/13 00:44:00;;;;;;;0.7;0.7;;;;;;;16.1;100.0;101770;;;;
2022/06/13 00:45:03;;;;;;;0.7;0.7;;;;;;;16.1;100.0;101770;;;;
2022/06/13 00:46:00;;;;;;;0.7;0.7;;;;;;;16.1;100.0;101770;;;;
2022/06/13 00:47:00;;;;;;;0.7;0.7;;;;;;;16.1;100.0;101770;;;;
2022/06/13 00:48:00;;;;;;;0.7;0.7;;;;;;;16.1;100.0;101760;;;;
2022/06/13 00:49:03;;;;;;;0.7;0.7;;;;;;;16.1;100.0;101760;;;;
2022/06/13 00:50:01;;;;;;;0.7;0.7;;;;;;;16.2;100.0;101760;;;;
2022/06/13 00:51:00;;;;;;;0.7;0.7;;;;;;;16.2;100.0;101760;;;;
2022/06/13 00:52:07;;;;;;;0.7;0.7;;;;;;;16.0;100.0;101760;;;;
2022/06/13 00:53:02;;;;;;;0.7;0.7;;;;;;;16.0;100.0;101760;;;;
2022/06/13 00:54:00;;;;;;;0.7;0.7;;;;;;;16.1;100.0;101760;;;;
2022/06/13 00:55:00;;;;;;;0.7;0.7;;;;;;;16.1;100.0;101760;;;;
2022/06/13 00:56:03;;;;;;;0.7;0.7;;;;;;;16.1;100.0;101750;;;;
2022/06/13 00:57:00;;;;;;;0.7;0.7;;;;;;;16.1;100.0;101750;;;;
2022/06/13 00:58:01;;;;;;;0.7;0.7;;;;;;;16.0;100.0;101750;;;;
2022/06/13 00:59:02;;;;;;;1.1;1.1;;;;;;;16.0;100.0;101750;;;;
2022/06/13 01:00:02;;;;;;;1.1;1.1;;;;;;;16.1;100.0;101750;;;;
2022/06/13 01:01:00;;;;;;;1.1;1.1;;;;;;;16.1;100.0;101750;;;;
2022/06/13 01:02:00;;;;;;;1.1;1.1;;;;;;;15.7;100.0;101760;;;;
2022/06/13 01:03:01;;;;;;;1.1;1.1;;;;;;;15.7;100.0;101760;;;;
2022/06/13 01:04:02;;;;;;;1.1;1.1;;;;;;;15.9;100.0;101760;;;;
2022/06/13 01:05:00;;;;;;;1.1;1.1;;;;;;;15.9;100.0;101760;;;;
2022/06/13 01:06:01;;;;;;;1.1;1.1;;;;;;;16.0;100.0;101750;;;;
2022/06/13 01:07:00;;;;;;;1.1;1.1;;;;;;;16.0;100.0;101750;;;;
2022/06/13 01:08:01;;;;;;;1.1;1.1;;;;;;;16.1;100.0;101750;;;;
2022/06/13 01:09:01;;;;;;;1.1;1.1;;;;;;;16.1;100.0;101750;;;;
2022/06/13 01:12:00;;;;;;;1.1;1.1;;;;;;;16.1;100.0;101750;;;;
2022/06/13 01:13:01;;;;;;;1.1;1.1;;;;;;;16.1;100.0;101750;;;;
2022/06/13 01:14:10;;;;;;;1.1;1.1;;;;;;;16.2;100.0;101750;;;;
2022/06/13 01:15:10;;;;;;;1.1;1.1;;;;;;;16.2;100.0;101750;;;;
2022/06/13 01:16:01;;;;;;;1.1;1.1;;;;;;;16.1;100.0;101750;;;;
2022/06/13 01:17:03;;;;;;;1.1;1.1;;;;;;;16.1;100.0;101750;;;;
2022/06/13 01:18:10;;;;;;;1.1;1.1;;;;;;;16.2;100.0;101750;;;;
2022/06/13 01:19:09;;;;;;;0.3;0.3;;;;;;;16.2;100.0;101750;;;;
2022/06/13 01:20:01;;;;;;;0.3;0.3;;;;;;;16.2;100.0;101750;;;;
2022/06/13 01:21:01;;;;;;;0.3;0.3;;;;;;;16.2;100.0;101750;;;;
2022/06/13 01:22:10;;;;;;;0.3;0.3;;;;;;;16.2;100.0;101750;;;;
2022/06/13 01:23:10;;;;;;;0.3;0.3;;;;;;;16.2;100.0;101750;;;;
2022/06/13 01:24:11;;;;;;;0.3;0.3;;;;;;;16.0;100.0;101740;;;;
2022/06/13 01:25:07;;;;;;;0.3;0.3;;;;;;;16.0;100.0;101740;;;;
2022/06/13 01:26:10;;;;;;;0.3;0.3;;;;;;;16.1;100.0;101750;;;;
2022/06/13 01:27:09;;;;;;;0.3;0.3;;;;;;;16.1;100.0;101750;;;;
2022/06/13 01:28:10;;;;;;;0.3;0.3;;;;;;;16.1;100.0;101750;;;;
2022/06/13 01:29:00;;;;;;;0.3;0.3;;;;;;;16.1;100.0;101750;;;;
2022/06/13 01:30:10;;;;;;;0.3;0.3;;;;;;;16.2;100.0;101750;;;;
2022/06/13 01:31:01;;;;;;;0.3;0.3;;;;;;;16.2;100.0;101750;;;;
2022/06/13 01:32:10;;;;;;;0.3;0.3;;;;;;;16.2;100.0;101750;;;;
2022/06/13 01:33:10;;;;;;;0.3;0.3;;;;;;;16.2;100.0;101750;;;;
2022/06/13 01:34:10;;;;;;;0.3;0.3;;;;;;;16.3;100.0;101750;;;;
2022/06/13 01:35:10;;;;;;;0.3;0.3;;;;;;;16.3;100.0;101750;;;;
2022/06/13 01:36:03;;;;;;;0.3;0.3;;;;;;;16.3;100.0;101750;;;;
2022/06/13 01:37:00;;;;;;;0.3;0.3;;;;;;;16.3;100.0;101750;;;;
2022/06/13 01:38:10;;;;;;;0.3;0.3;;;;;;;16.3;100.0;101750;;;;
2022/06/13 01:39:10;;;;;;;0.5;0.5;;;;;;;16.3;100.0;101750;;;;
2022/06/13 01:40:10;;;;;;;0.5;0.5;;;;;;;16.3;100.0;101760;;;;
2022/06/13 01:41:00;;;;;;;0.5;0.5;;;;;;;16.3;100.0;101760;;;;
2022/06/13 01:42:04;;;;;;;0.5;0.5;;;;;;;16.3;100.0;101750;;;;
2022/06/13 01:43:00;;;;;;;0.5;0.5;;;;;;;16.3;100.0;101750;;;;
2022/06/13 01:44:07;;;;;;;0.5;0.5;;;;;;;16.3;100.0;101750;;;;
2022/06/13 01:45:03;;;;;;;0.5;0.5;;;;;;;16.3;100.0;101750;;;;
2022/06/13 01:46:00;;;;;;;0.5;0.5;;;;;;;16.4;100.0;101740;;;;
2022/06/13 01:47:03;;;;;;;0.5;0.5;;;;;;;16.4;100.0;101740;;;;
2022/06/13 01:48:06;;;;;;;0.5;0.5;;;;;;;16.4;100.0;101730;;;;
2022/06/13 01:49:05;;;;;;;0.5;0.5;;;;;;;16.4;100.0;101730;;;;
2022/06/13 01:50:10;;;;;;;0.5;0.5;;;;;;;16.4;100.0;101730;;;;
2022/06/13 01:51:10;;;;;;;0.5;0.5;;;;;;;16.4;100.0;101730;;;;
2022/06/13 01:52:08;;;;;;;0.5;0.5;;;;;;;16.3;100.0;101730;;;;
2022/06/13 01:53:06;;;;;;;0.5;0.5;;;;;;;16.3;100.0;101730;;;;
2022/06/13 01:54:03;;;;;;;0.5;0.5;;;;;;;16.1;100.0;101730;;;;
2022/06/13 01:55:08;;;;;;;0.5;0.5;;;;;;;16.1;100.0;101730;;;;
2022/06/13 01:56:04;;;;;;;0.5;0.5;;;;;;;16.1;100.0;101730;;;;
2022/06/13 01:57:10;;;;;;;0.5;0.5;;;;;;;16.1;100.0;101730;;;;
2022/06/13 01:58:10;;;;;;;0.5;0.5;;;;;;;16.1;100.0;101730;;;;
2022/06/13 01:59:10;;;;;;;0.5;0.5;;;;;;;16.1;100.0;101730;;;;
2022/06/13 02:00:03;;;;;;;0.5;0.5;;;;;;;16.2;100.0;101740;;;;
2022/06/13 02:01:05;;;;;;;0.5;0.5;;;;;;;16.2;100.0;101740;;;;
2022/06/13 02:02:10;;;;;;;0.5;0.5;;;;;;;16.2;100.0;101740;;;;
2022/06/13 02:03:00;;;;;;;0.5;0.5;;;;;;;16.2;100.0;101740;;;;
2022/06/13 02:04:07;;;;;;;0.5;0.5;;;;;;;16.2;100.0;101740;;;;
2022/06/13 02:05:05;;;;;;;0.5;0.5;;;;;;;16.2;100.0;101740;;;;
2022/06/13 02:06:05;;;;;;;0.5;0.5;;;;;;;16.3;100.0;101740;;;;
2022/06/13 02:07:08;;;;;;;0.5;0.5;;;;;;;16.3;100.0;101740;;;;
2022/06/13 02:08:16;;;;;;;0.5;0.5;;;;;;;16.2;100.0;101740;;;;
2022/06/13 02:09:03;;;;;;;0.5;0.5;;;;;;;16.2;100.0;101740;;;;
2022/06/13 02:10:02;;;;;;;0.5;0.5;;;;;;;16.3;100.0;101750;;;;
2022/06/13 02:11:04;;;;;;;0.5;0.5;;;;;;;16.3;100.0;101750;;;;
2022/06/13 02:12:00;;;;;;;0.5;0.5;;;;;;;16.2;100.0;101740;;;;
2022/06/13 02:13:03;;;;;;;0.5;0.5;;;;;;;16.2;100.0;101740;;;;
2022/06/13 02:14:06;;;;;;;0.5;0.5;;;;;;;16.2;100.0;101750;;;;
2022/06/13 02:15:04;;;;;;;0.5;0.5;;;;;;;16.2;100.0;101750;;;;
2022/06/13 02:16:04;;;;;;;0.5;0.5;;;;;;;16.3;100.0;101740;;;;
2022/06/13 02:17:09;;;;;;;0.5;0.5;;;;;;;16.3;100.0;101740;;;;
2022/06/13 02:18:02;;;;;;;0.5;0.5;;;;;;;16.3;100.0;101750;;;;
2022/06/13 02:19:05;;;;;;;0.4;0.4;;;;;;;16.3;100.0;101750;;;;
2022/06/13 02:20:05;;;;;;;0.4;0.4;;;;;;;16.3;100.0;101750;;;;
2022/06/13 02:21:04;;;;;;;0.4;0.4;;;;;;;16.3;100.0;101750;;;;
2022/06/13 02:22:05;;;;;;;0.4;0.4;;;;;;;16.0;100.0;101750;;;;
2022/06/13 02:23:04;;;;;;;0.4;0.4;;;;;;;16.0;100.0;101750;;;;
2022/06/13 02:24:01;;;;;;;0.4;0.4;;;;;;;16.1;100.0;101750;;;;
2022/06/13 02:25:02;;;;;;;0.4;0.4;;;;;;;16.1;100.0;101750;;;;
2022/06/13 02:26:04;;;;;;;0.4;0.4;;;;;;;16.1;100.0;101750;;;;
2022/06/13 02:27:01;;;;;;;0.4;0.4;;;;;;;16.1;100.0;101750;;;;
2022/06/13 02:28:05;;;;;;;0.4;0.4;;;;;;;16.2;100.0;101750;;;;
2022/06/13 02:29:05;;;;;;;0.4;0.4;;;;;;;16.2;100.0;101750;;;;
2022/06/13 02:30:02;;;;;;;0.4;0.4;;;;;;;16.2;100.0;101740;;;;
2022/06/13 02:31:03;;;;;;;0.4;0.4;;;;;;;16.2;100.0;101740;;;;
2022/06/13 02:32:10;;;;;;;0.4;0.4;;;;;;;16.3;100.0;101730;;;;
2022/06/13 02:33:04;;;;;;;0.4;0.4;;;;;;;16.3;100.0;101730;;;;
2022/06/13 02:34:03;;;;;;;0.4;0.4;;;;;;;16.4;100.0;101730;;;;
2022/06/13 02:35:03;;;;;;;0.4;0.4;;;;;;;16.4;100.0;101730;;;;
2022/06/13 02:36:04;;;;;;;0.4;0.4;;;;;;;16.3;100.0;101720;;;;
2022/06/13 02:37:04;;;;;;;0.4;0.4;;;;;;;16.3;100.0;101720;;;;
2022/06/13 02:38:04;;;;;;;0.4;0.4;;;;;;;16.3;100.0;101710;;;;
2022/06/13 02:39:02;;;;;;;1.8;0.6;;;;;;;16.3;100.0;101710;;;;
2022/06/13 02:40:12;;;;;;;1.8;0.6;;;;;;;16.4;100.0;101720;;;;
2022/06/13 02:41:05;;;;;;;1.8;0.6;;;;;;;16.4;100.0;101720;;;;
2022/06/13 02:42:04;;;;;;;1.8;0.6;;;;;;;16.3;100.0;101730;;;;
2022/06/13 02:43:03;;;;;;;1.8;0.6;;;;;;;16.3;100.0;101730;;;;
2022/06/13 02:44:04;;;;;;;1.8;0.6;;;;;;;16.3;100.0;101730;;;;
2022/06/13 02:45:04;;;;;;;1.8;0.6;;;;;;;16.3;100.0;101730;;;;
2022/06/13 02:46:03;;;;;;;1.8;0.6;;;;;;;16.2;100.0;101730;;;;
2022/06/13 02:47:05;;;;;;;1.8;0.6;;;;;;;16.2;100.0;101730;;;;
2022/06/13 02:48:06;;;;;;;1.8;0.6;;;;;;;16.3;100.0;101730;;;;
2022/06/13 02:49:06;;;;;;;1.8;0.6;;;;;;;16.3;100.0;101730;;;;
2022/06/13 02:50:04;;;;;;;1.8;0.6;;;;;;;16.3;100.0;101730;;;;
2022/06/13 02:51:05;;;;;;;1.8;0.6;;;;;;;16.3;100.0;101730;;;;
2022/06/13 02:52:10;;;;;;;1.8;0.6;;;;;;;16.3;100.0;101730;;;;
2022/06/13 02:53:00;;;;;;;1.8;0.6;;;;;;;16.3;100.0;101730;;;;
2022/06/13 02:54:04;;;;;;;1.8;0.6;;;;;;;16.3;100.0;101730;;;;
2022/06/13 02:55:02;;;;;;;1.8;0.6;;;;;;;16.3;100.0;101730;;;;
2022/06/13 02:56:07;;;;;;;1.8;0.6;;;;;;;16.3;100.0;101720;;;;
2022/06/13 02:58:06;;;;;;;1.8;0.6;;;;;;;16.2;100.0;101720;;;;
2022/06/13 02:59:09;;;;;;;0.3;0.3;;;;;;;16.2;100.0;101720;;;;
2022/06/13 03:00:10;;;;;;;0.3;0.3;;;;;;;16.3;100.0;101720;;;;
2022/06/13 03:01:10;;;;;;;0.3;0.3;;;;;;;16.3;100.0;101720;;;;
2022/06/13 03:02:01;;;;;;;0.3;0.3;;;;;;;16.2;100.0;101720;;;;
2022/06/13 03:03:00;;;;;;;0.3;0.3;;;;;;;16.2;100.0;101720;;;;
2022/06/13 03:04:05;;;;;;;0.3;0.3;;;;;;;16.1;100.0;101720;;;;
2022/06/13 03:05:06;;;;;;;0.3;0.3;;;;;;;16.1;100.0;101720;;;;
2022/06/13 03:06:10;;;;;;;0.3;0.3;;;;;;;16.2;100.0;101710;;;;
2022/06/13 03:07:04;;;;;;;0.3;0.3;;;;;;;16.2;100.0;101710;;;;
2022/06/13 03:08:10;;;;;;;0.3;0.3;;;;;;;16.1;100.0;101720;;;;
2022/06/13 03:09:09;;;;;;;0.3;0.3;;;;;;;16.1;100.0;101720;;;;
2022/06/13 03:10:05;;;;;;;0.3;0.3;;;;;;;16.1;100.0;101720;;;;
2022/06/13 03:11:10;;;;;;;0.3;0.3;;;;;;;16.1;100.0;101720;;;;
2022/06/13 03:12:10;;;;;;;0.3;0.3;;;;;;;16.1;100.0;101720;;;;
2022/06/13 03:13:04;;;;;;;0.3;0.3;;;;;;;16.1;100.0;101720;;;;
2022/06/13 03:14:10;;;;;;;0.3;0.3;;;;;;;16.0;100.0;101720;;;;
2022/06/13 03:15:03;;;;;;;0.3;0.3;;;;;;;16.0;100.0;101720;;;;
2022/06/13 03:16:07;;;;;;;0.3;0.3;;;;;;;16.1;100.0;101720;;;;
2022/06/13 03:17:00;;;;;;;0.3;0.3;;;;;;;16.1;100.0;101720;;;;
2022/06/13 03:18:03;;;;;;;0.3;0.3;;;;;;;15.9;100.0;101730;;;;
2022/06/13 03:19:08;;;;;;;0.5;0.5;;;;;;;15.9;100.0;101730;;;;
2022/06/13 03:20:10;;;;;;;0.5;0.5;;;;;;;16.1;100.0;101730;;;;
2022/06/13 03:21:07;;;;;;;0.5;0.5;;;;;;;16.1;100.0;101730;;;;
2022/06/13 03:22:04;;;;;;;0.5;0.5;;;;;;;16.1;100.0;101730;;;;
2022/06/13 03:23:05;;;;;;;0.5;0.5;;;;;;;16.1;100.0;101730;;;;
2022/06/13 03:24:05;;;;;;;0.5;0.5;;;;;;;16.1;100.0;101730;;;;
2022/06/13 03:25:07;;;;;;;0.5;0.5;;;;;;;16.1;100.0;101730;;;;
2022/06/13 03:26:02;;;;;;;0.5;0.5;;;;;;;16.0;100.0;101730;;;;
2022/06/13 03:27:04;;;;;;;0.5;0.5;;;;;;;16.0;100.0;101730;;;;
2022/06/13 03:28:08;;;;;;;0.5;0.5;;;;;;;15.9;100.0;101730;;;;
2022/06/13 03:29:10;;;;;;;0.5;0.5;;;;;;;15.9;100.0;101730;;;;
2022/06/13 03:30:05;;;;;;;0.5;0.5;;;;;;;15.9;100.0;101730;;;;
2022/06/13 03:31:04;;;;;;;0.5;0.5;;;;;;;15.9;100.0;101730;;;;
2022/06/13 03:32:06;;;;;;;0.5;0.5;;;;;;;15.9;100.0;101730;;;;
2022/06/13 03:34:03;;;;;;;0.5;0.5;;;;;;;15.8;100.0;101730;;;;
2022/06/13 03:35:01;;;;;;;0.5;0.5;;;;;;;15.8;100.0;101730;;;;
2022/06/13 03:36:04;;;;;;;0.5;0.5;;;;;;;15.8;100.0;101730;;;;
2022/06/13 03:37:10;;;;;;;0.5;0.5;;;;;;;15.8;100.0;101730;;;;
2022/06/13 03:38:02;;;;;;;0.5;0.5;;;;;;;15.7;100.0;101740;;;;
2022/06/13 03:39:11;;;;;;;0.4;0.4;;;;;;;15.7;100.0;101740;;;;
2022/06/13 03:40:02;;;;;;;0.4;0.4;;;;;;;15.6;100.0;101730;;;;
2022/06/13 03:41:01;;;;;;;0.4;0.4;;;;;;;15.6;100.0;101730;;;;
2022/06/13 03:42:10;;;;;;;0.4;0.4;;;;;;;15.6;100.0;101740;;;;
2022/06/13 03:43:10;;;;;;;0.4;0.4;;;;;;;15.6;100.0;101740;;;;
2022/06/13 03:44:04;;;;;;;0.4;0.4;;;;;;;15.7;100.0;101740;;;;
2022/06/13 03:45:05;;;;;;;0.4;0.4;;;;;;;15.7;100.0;101740;;;;
2022/06/13 03:46:05;;;;;;;0.4;0.4;;;;;;;15.6;100.0;101740;;;;
2022/06/13 03:47:05;;;;;;;0.4;0.4;;;;;;;15.6;100.0;101740;;;;
2022/06/13 03:48:06;;;;;;;0.4;0.4;;;;;;;15.5;100.0;101740;;;;
2022/06/13 03:49:03;;;;;;;0.4;0.4;;;;;;;15.5;100.0;101740;;;;
2022/06/13 03:50:10;;;;;;;0.4;0.4;;;;;;;15.5;100.0;101750;;;;
2022/06/13 03:51:03;;;;;;;0.4;0.4;;;;;;;15.5;100.0;101750;;;;
2022/06/13 03:52:01;;;;;;;0.4;0.4;;;;;;;15.5;100.0;101750;;;;
2022/06/13 03:53:02;;;;;;;0.4;0.4;;;;;;;15.5;100.0;101750;;;;
2022/06/13 03:54:12;;;;;;;0.4;0.4;;;;;;;15.5;100.0;101750;;;;
2022/06/13 03:55:10;;;;;;;0.4;0.4;;;;;;;15.5;100.0;101750;;;;
2022/06/13 03:56:05;;;;;;;0.4;0.4;;;;;;;15.6;100.0;101750;;;;
2022/06/13 03:57:03;;;;;;;0.4;0.4;;;;;;;15.6;100.0;101750;;;;
2022/06/13 03:58:07;;;;;;;0.4;0.4;;;;;;;15.6;100.0;101750;;;;
2022/06/13 03:59:05;;;;;;;0.6;0.6;;;;;;;15.6;100.0;101750;;;;
2022/06/13 04:00:04;;;;;;;0.6;0.6;;;;;;;15.6;100.0;101750;;;;
2022/06/13 04:01:07;;;;;;;0.6;0.6;;;;;;;15.6;100.0;101750;;;;
2022/06/13 04:02:02;;;;;;;0.6;0.6;;;;;;;15.6;100.0;101750;;;;
2022/06/13 04:03:00;;;;;;;0.6;0.6;;;;;;;15.6;100.0;101750;;;;
2022/06/13 04:04:01;;;;;;;0.6;0.6;;;;;;;15.5;100.0;101750;;;;
2022/06/13 04:05:00;;;;;;;0.6;0.6;;;;;;;15.5;100.0;101750;;;;
2022/06/13 04:06:02;;;;;;;0.6;0.6;;;;;;;15.5;100.0;101750;;;;
2022/06/13 04:07:01;;;;;;;0.6;0.6;;;;;;;15.5;100.0;101750;;;;
2022/06/13 04:08:01;;;;;;;0.6;0.6;;;;;;;15.6;100.0;101750;;;;
2022/06/13 04:09:02;;;;;;;0.6;0.6;;;;;;;15.6;100.0;101750;;;;
2022/06/13 04:10:00;;;;;;;0.6;0.6;;;;;;;15.6;100.0;101750;;;;
2022/06/13 04:11:10;;;;;;;0.6;0.6;;;;;;;15.6;100.0;101750;;;;
2022/06/13 04:12:10;;;;;;;0.6;0.6;;;;;;;15.6;100.0;101760;;;;
2022/06/13 04:13:00;;;;;;;0.6;0.6;;;;;;;15.6;100.0;101760;;;;
2022/06/13 04:14:01;;;;;;;0.6;0.6;;;;;;;15.5;100.0;101750;;;;
2022/06/13 04:15:08;;;;;;;0.6;0.6;;;;;;;15.5;100.0;101750;;;;
2022/06/13 04:16:08;;;;;;;0.6;0.6;;;;;;;15.5;100.0;101760;;;;
2022/06/13 04:17:07;;;;;;;0.6;0.6;;;;;;;15.5;100.0;101760;;;;
2022/06/13 04:18:08;;;;;;;0.6;0.6;;;;;;;15.4;100.0;101760;;;;
2022/06/13 04:19:09;;;;;;;0.6;0.6;;;;;;;15.4;100.0;101760;;;;
2022/06/13 04:20:10;;;;;;;0.6;0.6;;;;;;;15.4;100.0;101760;;;;
2022/06/13 04:21:00;;;;;;;0.6;0.6;;;;;;;15.4;100.0;101760;;;;
2022/06/13 04:22:10;;;;;;;0.6;0.6;;;;;;;15.5;100.0;101760;;;;
2022/06/13 04:23:10;;;;;;;0.6;0.6;;;;;;;15.5;100.0;101760;;;;
2022/06/13 04:24:09;;;;;;;0.6;0.6;;;;;;;15.4;100.0;101770;;;;
2022/06/13 04:25:03;;;;;;;0.6;0.6;;;;;;;15.4;100.0;101770;;;;
2022/06/13 04:26:01;;;;;;;0.6;0.6;;;;;;;15.6;100.0;101770;;;;
2022/06/13 04:27:07;;;;;;;0.6;0.6;;;;;;;15.6;100.0;101770;;;;
2022/06/13 04:28:01;;;;;;;0.6;0.6;;;;;;;15.6;100.0;101770;;;;
2022/06/13 04:29:05;;;;;;;0.6;0.6;;;;;;;15.6;100.0;101770;;;;
2022/06/13 04:30:00;;;;;;;0.6;0.6;;;;;;;15.6;100.0;101780;;;;
2022/06/13 04:31:02;;;;;;;0.6;0.6;;;;;;;15.6;100.0;101780;;;;
2022/06/13 04:32:09;;;;;;;0.6;0.6;;;;;;;15.7;100.0;101780;;;;
2022/06/13 04:33:03;;;;;;;0.6;0.6;;;;;;;15.7;100.0;101780;;;;
2022/06/13 04:34:03;;;;;;;0.6;0.6;;;;;;;15.7;100.0;101780;;;;
2022/06/13 04:35:00;;;;;;;0.6;0.6;;;;;;;15.7;100.0;101780;;;;
2022/06/13 04:36:01;;;;;;;0.6;0.6;;;;;;;15.6;100.0;101780;;;;
2022/06/13 04:37:01;;;;;;;0.6;0.6;;;;;;;15.6;100.0;101780;;;;
2022/06/13 04:38:02;;;;;;;0.6;0.6;;;;;;;15.6;100.0;101780;;;;
2022/06/13 04:39:03;;;;;;;0.7;0.7;;;;;;;15.6;100.0;101780;;;;
2022/06/13 04:40:02;;;;;;;0.7;0.7;;;;;;;15.7;100.0;101780;;;;
2022/06/13 04:41:02;;;;;;;0.7;0.7;;;;;;;15.7;100.0;101780;;;;
2022/06/13 04:42:01;;;;;;;0.7;0.7;;;;;;;15.7;100.0;101780;;;;
2022/06/13 04:43:00;;;;;;;0.7;0.7;;;;;;;15.7;100.0;101780;;;;
2022/06/13 04:44:02;;;;;;;0.7;0.7;;;;;;;15.8;100.0;101780;;;;
2022/06/13 04:45:04;;;;;;;0.7;0.7;;;;;;;15.8;100.0;101780;;;;
2022/06/13 04:46:03;;;;;;;0.7;0.7;;;;;;;15.9;100.0;101780;;;;
2022/06/13 04:47:00;;;;;;;0.7;0.7;;;;;;;15.9;100.0;101780;;;;
2022/06/13 04:48:01;;;;;;;0.7;0.7;;;;;;;15.8;100.0;101790;;;;
2022/06/13 04:49:04;;;;;;;0.7;0.7;;;;;;;15.8;100.0;101790;;;;
2022/06/13 04:50:01;;;;;;;0.7;0.7;;;;;;;15.9;100.0;101780;;;;
2022/06/13 04:51:05;;;;;;;0.7;0.7;;;;;;;15.9;100.0;101780;;;;
2022/06/13 04:52:03;;;;;;;0.7;0.7;;;;;;;15.9;100.0;101780;;;;
2022/06/13 04:53:01;;;;;;;0.7;0.7;;;;;;;15.9;100.0;101780;;;;
2022/06/13 04:54:04;;;;;;;0.7;0.7;;;;;;;15.9;100.0;101780;;;;
2022/06/13 04:55:01;;;;;;;0.7;0.7;;;;;;;15.9;100.0;101780;;;;
2022/06/13 04:56:00;;;;;;;0.7;0.7;;;;;;;15.9;100.0;101770;;;;
2022/06/13 04:57:00;;;;;;;0.7;0.7;;;;;;;15.9;100.0;101770;;;;
2022/06/13 04:58:00;;;;;;;0.7;0.7;;;;;;;15.9;100.0;101780;;;;
2022/06/13 04:59:01;;;;;;;0.5;0.5;;;;;;;15.9;100.0;101780;;;;
2022/06/13 05:00:02;;;;;;;0.5;0.5;;;;;;;16.0;100.0;101780;;;;
2022/06/13 05:01:02;;;;;;;0.5;0.5;;;;;;;16.0;100.0;101780;;;;
2022/06/13 05:02:01;;;;;;;0.5;0.5;;;;;;;16.0;100.0;101780;;;;
2022/06/13 05:03:00;;;;;;;0.5;0.5;;;;;;;16.0;100.0;101780;;;;
2022/06/13 05:04:02;;;;;;;0.5;0.5;;;;;;;15.9;100.0;101780;;;;
2022/06/13 05:05:00;;;;;;;0.5;0.5;;;;;;;15.9;100.0;101780;;;;
2022/06/13 05:06:04;;;;;;;0.5;0.5;;;;;;;15.9;100.0;101780;;;;
2022/06/13 05:07:07;;;;;;;0.5;0.5;;;;;;;15.9;100.0;101780;;;;
2022/06/13 05:08:09;;;;;;;0.5;0.5;;;;;;;16.0;100.0;101780;;;;
2022/06/13 05:09:01;;;;;;;0.5;0.5;;;;;;;16.0;100.0;101780;;;;
2022/06/13 05:10:02;;;;;;;0.5;0.5;;;;;;;15.9;100.0;101790;;;;
2022/06/13 05:11:06;;;;;;;0.5;0.5;;;;;;;15.9;100.0;101790;;;;
2022/06/13 05:12:04;;;;;;;0.5;0.5;;;;;;;15.9;100.0;101790;;;;
2022/06/13 05:13:00;;;;;;;0.5;0.5;;;;;;;15.9;100.0;101790;;;;
2022/06/13 05:14:03;;;;;;;0.5;0.5;;;;;;;16.1;100.0;101800;;;;
2022/06/13 05:15:01;;;;;;;0.5;0.5;;;;;;;16.1;100.0;101800;;;;
2022/06/13 05:16:10;;;;;;;0.5;0.5;;;;;;;16.1;100.0;101800;;;;
2022/06/13 05:17:00;;;;;;;0.5;0.5;;;;;;;16.1;100.0;101800;;;;
2022/06/13 05:18:10;;;;;;;0.5;0.5;;;;;;;16.2;100.0;101800;;;;
2022/06/13 05:19:09;;;;;;;0.5;0.5;;;;;;;16.2;100.0;101800;;;;
2022/06/13 05:20:10;;;;;;;0.5;0.5;;;;;;;16.2;100.0;101800;;;;
2022/06/13 05:21:10;;;;;;;0.5;0.5;;;;;;;16.2;100.0;101800;;;;
2022/06/13 05:22:03;;;;;;;0.5;0.5;;;;;;;16.4;100.0;101800;;;;
2022/06/13 05:23:10;;;;;;;0.5;0.5;;;;;;;16.4;100.0;101800;;;;
2022/06/13 05:24:01;;;;;;;0.5;0.5;;;;;;;16.3;100.0;101800;;;;
2022/06/13 05:25:10;;;;;;;0.5;0.5;;;;;;;16.3;100.0;101800;;;;
2022/06/13 05:26:00;;;;;;;0.5;0.5;;;;;;;16.4;100.0;101810;;;;
2022/06/13 05:27:05;;;;;;;0.5;0.5;;;;;;;16.4;100.0;101810;;;;
2022/06/13 05:28:00;;;;;;;0.5;0.5;;;;;;;16.5;100.0;101800;;;;
2022/06/13 05:29:00;;;;;;;0.5;0.5;;;;;;;16.5;100.0;101800;;;;
2022/06/13 05:30:00;;;;;;;0.5;0.5;;;;;;;16.6;100.0;101810;;;;
2022/06/13 05:31:01;;;;;;;0.5;0.5;;;;;;;16.6;100.0;101810;;;;
2022/06/13 05:32:00;;;;;;;0.5;0.5;;;;;;;16.6;100.0;101810;;;;
2022/06/13 05:33:00;;;;;;;0.5;0.5;;;;;;;16.6;100.0;101810;;;;
2022/06/13 05:34:00;;;;;;;0.5;0.5;;;;;;;16.7;100.0;101800;;;;
2022/06/13 05:35:01;;;;;;;0.5;0.5;;;;;;;16.7;100.0;101800;;;;
2022/06/13 05:36:01;;;;;;;0.5;0.5;;;;;;;16.6;100.0;101820;;;;
2022/06/13 05:37:00;;;;;;;0.5;0.5;;;;;;;16.6;100.0;101820;;;;
2022/06/13 05:38:01;;;;;;;0.5;0.5;;;;;;;16.9;100.0;101810;;;;
2022/06/13 05:39:01;;;;;;;0.3;0.3;;;;;;;16.9;100.0;101810;;;;
2022/06/13 05:40:00;;;;;;;0.3;0.3;;;;;;;16.9;100.0;101820;;;;
2022/06/13 05:41:00;;;;;;;0.3;0.3;;;;;;;16.9;100.0;101820;;;;
2022/06/13 05:42:00;;;;;;;0.3;0.3;;;;;;;17.0;100.0;101820;;;;
2022/06/13 05:43:00;;;;;;;0.3;0.3;;;;;;;17.0;100.0;101820;;;;
2022/06/13 05:44:00;;;;;;;0.3;0.3;;;;;;;17.1;100.0;101820;;;;
2022/06/13 05:45:00;;;;;;;0.3;0.3;;;;;;;17.1;100.0;101820;;;;
2022/06/13 05:46:00;;;;;;;0.3;0.3;;;;;;;17.1;100.0;101820;;;;
2022/06/13 05:47:00;;;;;;;0.3;0.3;;;;;;;17.1;100.0;101820;;;;
2022/06/13 05:48:00;;;;;;;0.3;0.3;;;;;;;17.2;100.0;101820;;;;
2022/06/13 05:49:00;;;;;;;0.3;0.3;;;;;;;17.2;100.0;101820;;;;
2022/06/13 05:50:00;;;;;;;0.3;0.3;;;;;;;17.3;100.0;101820;;;;
2022/06/13 05:51:00;;;;;;;0.3;0.3;;;;;;;17.3;100.0;101820;;;;
2022/06/13 05:52:00;;;;;;;0.3;0.3;;;;;;;17.2;100.0;101820;;;;
2022/06/13 05:53:00;;;;;;;0.3;0.3;;;;;;;17.2;100.0;101820;;;;
2022/06/13 05:54:00;;;;;;;0.3;0.3;;;;;;;17.3;100.0;101820;;;;
2022/06/13 05:55:10;;;;;;;0.3;0.3;;;;;;;17.3;100.0;101820;;;;
2022/06/13 05:56:01;;;;;;;0.3;0.3;;;;;;;17.4;100.0;101820;;;;
2022/06/13 05:57:00;;;;;;;0.3;0.3;;;;;;;17.4;100.0;101820;;;;
2022/06/13 05:58:01;;;;;;;0.3;0.3;;;;;;;17.4;100.0;101820;;;;
2022/06/13 05:59:00;;;;;;;1.7;1.3;;;;;;;17.4;100.0;101820;;;;
2022/06/13 06:00:00;;;;;;;1.7;1.3;;;;;;;17.5;100.0;101830;;;;
2022/06/13 06:01:01;;;;;;;1.7;1.3;;;;;;;17.5;100.0;101830;;;;
2022/06/13 06:02:00;;;;;;;1.7;1.3;;;;;;;17.5;100.0;101830;;;;
2022/06/13 06:03:00;;;;;;;1.7;1.3;;;;;;;17.5;100.0;101830;;;;
2022/06/13 06:04:00;;;;;;;1.7;1.3;;;;;;;17.5;100.0;101830;;;;
2022/06/13 06:05:05;;;;;;;1.7;1.3;;;;;;;17.5;100.0;101830;;;;
2022/06/13 06:06:01;;;;;;;1.7;1.3;;;;;;;17.4;100.0;101840;;;;
2022/06/13 06:07:00;;;;;;;1.7;1.3;;;;;;;17.4;100.0;101840;;;;
2022/06/13 06:08:00;;;;;;;1.7;1.3;;;;;;;17.5;100.0;101840;;;;
2022/06/13 06:09:00;;;;;;;1.7;1.3;;;;;;;17.5;100.0;101840;;;;
2022/06/13 06:10:01;;;;;;;1.7;1.3;;;;;;;17.5;100.0;101840;;;;
2022/06/13 06:11:00;;;;;;;1.7;1.3;;;;;;;17.5;100.0;101840;;;;
2022/06/13 06:12:00;;;;;;;1.7;1.3;;;;;;;17.7;100.0;101850;;;;
2022/06/13 06:13:00;;;;;;;1.7;1.3;;;;;;;17.7;100.0;101850;;;;
2022/06/13 06:14:00;;;;;;;1.7;1.3;;;;;;;17.7;100.0;101850;;;;
2022/06/13 06:15:00;;;;;;;1.7;1.3;;;;;;;17.7;100.0;101850;;;;
2022/06/13 06:16:00;;;;;;;1.7;1.3;;;;;;;17.6;100.0;101860;;;;
2022/06/13 06:17:00;;;;;;;1.7;1.3;;;;;;;17.6;100.0;101860;;;;
2022/06/13 06:18:00;;;;;;;1.7;1.3;;;;;;;17.8;100.0;101860;;;;
2022/06/13 06:19:00;;;;;;;0.3;0.3;;;;;;;17.8;100.0;101860;;;;
2022/06/13 06:20:00;;;;;;;0.3;0.3;;;;;;;17.9;100.0;101850;;;;
2022/06/13 06:21:00;;;;;;;0.3;0.3;;;;;;;17.9;100.0;101850;;;;
2022/06/13 06:22:00;;;;;;;0.3;0.3;;;;;;;17.9;100.0;101860;;;;
2022/06/13 06:23:00;;;;;;;0.3;0.3;;;;;;;17.9;100.0;101860;;;;
2022/06/13 06:24:00;;;;;;;0.3;0.3;;;;;;;18.0;100.0;101860;;;;
2022/06/13 06:25:00;;;;;;;0.3;0.3;;;;;;;18.0;100.0;101860;;;;
2022/06/13 06:26:00;;;;;;;0.3;0.3;;;;;;;18.3;100.0;101860;;;;